createdAt,value
2018-05-18T00:00:06.278Z,11.20
2018-05-18T00:02:33.816Z,11.20
2018-05-18T00:05:01.334Z,11.10
2018-05-18T00:07:28.886Z,11.10
2018-05-18T00:09:56.421Z,11.10
2018-05-18T00:12:24.754Z,11.00
2018-05-18T00:14:54.200Z,11.00
2018-05-18T00:17:21.813Z,11.10
2018-05-18T00:19:49.348Z,11.00
2018-05-18T00:22:18.014Z,11.00
2018-05-18T00:24:46.320Z,11.00
2018-05-18T00:27:15.314Z,11.00
2018-05-18T00:29:42.862Z,11.00
2018-05-18T00:32:10.404Z,10.90
2018-05-18T00:34:38.702Z,11.00
2018-05-18T00:37:07.230Z,10.90
2018-05-18T00:39:35.150Z,11.00
2018-05-18T00:42:02.692Z,11.00
2018-05-18T00:44:31.951Z,10.90
2018-05-18T00:47:01.005Z,10.90
2018-05-18T00:49:28.526Z,10.90
2018-05-18T00:51:56.836Z,10.90
2018-05-18T00:54:25.478Z,10.90
2018-05-18T00:56:53.031Z,10.90
2018-05-18T00:59:20.557Z,11.00
2018-05-18T01:01:49.555Z,10.90
2018-05-18T01:04:17.090Z,10.90
2018-05-18T01:06:44.650Z,10.90
2018-05-18T01:09:12.186Z,11.00
2018-05-18T01:11:40.471Z,10.90
2018-05-18T01:14:09.008Z,10.90
2018-05-18T01:16:36.599Z,10.90
2018-05-18T01:19:05.010Z,10.90
2018-05-18T01:21:34.327Z,10.90
2018-05-18T01:24:01.869Z,10.90
2018-05-18T01:26:30.253Z,10.90
2018-05-18T01:28:57.831Z,10.90
2018-05-18T01:31:25.369Z,10.90
2018-05-18T01:33:52.902Z,10.80
2018-05-18T01:36:21.208Z,10.80
2018-05-18T01:38:48.716Z,10.80
2018-05-18T01:41:17.038Z,10.80
2018-05-18T01:43:44.591Z,10.80
2018-05-18T01:46:12.147Z,10.80
2018-05-18T01:48:39.705Z,10.80
2018-05-18T01:51:07.220Z,10.80
2018-05-18T01:53:34.762Z,10.80
2018-05-18T01:56:02.311Z,10.80
2018-05-18T01:58:29.872Z,10.80
2018-05-18T02:00:57.417Z,10.80
2018-05-18T02:03:24.978Z,10.80
2018-05-18T02:05:52.515Z,10.70
2018-05-18T02:08:20.065Z,10.70
2018-05-18T02:10:48.166Z,10.70
2018-05-18T02:13:15.939Z,10.70
2018-05-18T02:15:43.486Z,10.60
2018-05-18T02:18:11.046Z,10.70
2018-05-18T02:20:38.926Z,10.60
2018-05-18T02:23:06.448Z,10.60
2018-05-18T02:25:33.989Z,10.60
2018-05-18T02:28:03.404Z,10.60
2018-05-18T02:30:30.961Z,10.50
2018-05-18T02:32:58.498Z,10.50
2018-05-18T02:35:26.814Z,10.50
2018-05-18T02:37:54.370Z,10.50
2018-05-18T02:40:23.399Z,10.60
2018-05-18T02:42:50.955Z,10.60
2018-05-18T02:45:18.594Z,10.50
2018-05-18T02:47:46.147Z,10.50
2018-05-18T02:50:13.697Z,10.50
2018-05-18T02:52:41.247Z,10.50
2018-05-18T02:55:08.785Z,10.50
2018-05-18T02:57:36.365Z,10.50
2018-05-18T03:00:04.711Z,10.50
2018-05-18T03:02:32.237Z,10.50
2018-05-18T03:04:59.812Z,10.50
2018-05-18T03:07:27.371Z,10.50
2018-05-18T03:09:54.913Z,10.50
2018-05-18T03:12:22.435Z,10.60
2018-05-18T03:14:49.968Z,10.50
2018-05-18T03:17:17.517Z,10.50
2018-05-18T03:19:46.981Z,10.60
2018-05-18T03:22:15.960Z,10.60
2018-05-18T03:24:44.359Z,10.60
2018-05-18T03:27:11.883Z,10.60
2018-05-18T03:29:39.465Z,10.60
2018-05-18T03:32:07.024Z,10.60
2018-05-18T03:34:34.580Z,10.60
2018-05-18T03:37:02.122Z,10.60
2018-05-18T03:39:29.674Z,10.60
2018-05-18T03:41:57.990Z,10.70
2018-05-18T03:44:26.516Z,10.60
2018-05-18T03:46:54.035Z,10.70
2018-05-18T03:49:21.592Z,10.70
2018-05-18T03:51:49.103Z,10.70
2018-05-18T03:54:17.416Z,10.70
2018-05-18T03:56:44.945Z,10.70
2018-05-18T03:59:13.257Z,10.70
2018-05-18T04:01:52.750Z,10.70
2018-05-18T04:04:33.064Z,10.60
2018-05-18T04:07:12.379Z,10.70
2018-05-18T04:09:39.912Z,10.70
2018-05-18T04:12:09.564Z,10.70
2018-05-18T04:14:37.105Z,10.70
2018-05-18T04:17:04.633Z,10.70
2018-05-18T04:19:33.063Z,10.80
2018-05-18T04:22:00.617Z,10.80
2018-05-18T04:24:28.189Z,10.80
2018-05-18T04:26:55.734Z,10.80
2018-05-18T04:29:23.279Z,10.80
2018-05-18T04:31:50.866Z,10.90
2018-05-18T04:34:18.419Z,11.00
2018-05-18T04:36:45.983Z,11.00
2018-05-18T04:39:13.517Z,11.00
2018-05-18T04:41:41.077Z,11.00
2018-05-18T04:44:08.634Z,11.00
2018-05-18T04:46:37.353Z,11.10
2018-05-18T04:49:04.874Z,11.10
2018-05-18T04:51:32.460Z,11.10
2018-05-18T04:54:00.906Z,11.20
2018-05-18T04:56:28.465Z,11.20
2018-05-18T04:58:56.045Z,11.20
2018-05-18T05:01:23.622Z,11.30
2018-05-18T05:03:52.687Z,11.30
2018-05-18T05:06:20.218Z,11.40
2018-05-18T05:08:48.621Z,11.50
2018-05-18T05:11:17.117Z,11.50
2018-05-18T05:13:44.690Z,11.50
2018-05-18T05:16:12.241Z,11.60
2018-05-18T05:18:39.942Z,11.70
2018-05-18T05:21:07.488Z,11.80
2018-05-18T05:23:35.611Z,11.90
2018-05-18T05:26:05.101Z,12.00
2018-05-18T05:28:32.669Z,12.10
2018-05-18T05:31:00.234Z,12.20
2018-05-18T05:33:27.780Z,12.20
2018-05-18T05:35:56.432Z,12.30
2018-05-18T05:38:23.965Z,12.50
2018-05-18T05:40:51.509Z,12.50
2018-05-18T05:43:19.042Z,12.70
2018-05-18T05:45:47.049Z,13.00
2018-05-18T05:48:14.588Z,13.20
2018-05-18T05:50:42.118Z,13.30
2018-05-18T05:53:11.508Z,13.50
2018-05-18T05:55:39.767Z,13.90
2018-05-18T05:58:07.292Z,13.80
2018-05-18T06:00:34.797Z,14.20
2018-05-18T06:03:03.079Z,14.80
2018-05-18T06:05:31.567Z,14.70
2018-05-18T06:07:59.833Z,15.00
2018-05-18T06:10:28.108Z,15.30
2018-05-18T06:12:55.656Z,15.20
2018-05-18T06:15:23.190Z,15.60
2018-05-18T06:17:50.765Z,15.70
2018-05-18T06:20:19.068Z,14.90
2018-05-18T06:22:47.350Z,15.20
2018-05-18T06:25:14.895Z,15.20
2018-05-18T06:27:43.177Z,16.30
2018-05-18T06:30:11.478Z,16.80
2018-05-18T06:32:38.992Z,16.80
2018-05-18T06:35:08.124Z,17.30
2018-05-18T06:37:35.524Z,17.40
2018-05-18T06:40:03.024Z,17.60
2018-05-18T06:42:31.827Z,17.70
2018-05-18T06:44:59.282Z,17.70
2018-05-18T06:47:26.905Z,18.60
2018-05-18T06:49:54.401Z,18.20
2018-05-18T06:52:21.930Z,18.30
2018-05-18T06:54:49.432Z,19.10
2018-05-18T06:57:18.382Z,19.60
2018-05-18T06:59:46.653Z,19.70
2018-05-18T07:02:14.270Z,19.70
2018-05-18T07:04:41.798Z,20.40
2018-05-18T07:07:09.301Z,21.10
2018-05-18T07:09:36.822Z,20.10
2018-05-18T07:12:04.330Z,20.10
2018-05-18T07:14:33.445Z,19.60
2018-05-18T07:17:01.782Z,20.50
2018-05-18T07:19:29.303Z,20.50
2018-05-18T07:21:57.571Z,20.80
2018-05-18T07:24:25.862Z,20.80
2018-05-18T07:26:53.394Z,20.80
2018-05-18T07:29:21.716Z,22.00
2018-05-18T07:31:49.242Z,21.90
2018-05-18T07:34:17.526Z,22.20
2018-05-18T07:36:45.075Z,22.10
2018-05-18T07:39:13.410Z,21.60
2018-05-18T07:41:40.945Z,21.50
2018-05-18T07:44:08.477Z,21.70
2018-05-18T07:46:36.982Z,22.90
2018-05-18T07:49:05.744Z,22.90
2018-05-18T07:51:34.819Z,22.20
2018-05-18T07:54:02.392Z,22.10
2018-05-18T07:56:30.669Z,22.30
2018-05-18T07:58:58.954Z,22.60
2018-05-18T08:01:26.469Z,22.60
2018-05-18T08:03:55.093Z,23.00
2018-05-18T08:06:23.362Z,22.70
2018-05-18T08:08:51.646Z,22.80
2018-05-18T08:11:20.363Z,22.30
2018-05-18T08:13:49.388Z,22.30
2018-05-18T08:16:16.881Z,23.80
2018-05-18T08:18:45.132Z,23.00
2018-05-18T08:21:12.665Z,22.90
2018-05-18T08:23:41.110Z,23.20
2018-05-18T08:26:08.637Z,22.90
2018-05-18T08:28:48.108Z,23.50
2018-05-18T08:31:15.608Z,22.20
2018-05-18T08:33:43.114Z,23.20
2018-05-18T08:36:10.614Z,22.30
2018-05-18T08:38:38.134Z,22.30
2018-05-18T08:41:05.653Z,22.60
2018-05-18T08:43:33.932Z,23.90
2018-05-18T08:46:01.480Z,23.90
2018-05-18T08:48:29.097Z,24.80
2018-05-18T08:50:56.609Z,25.70
2018-05-18T08:53:24.123Z,25.20
2018-05-18T08:55:51.638Z,25.90
2018-05-18T08:58:21.452Z,25.60
2018-05-18T09:00:49.716Z,25.20
2018-05-18T09:03:18.649Z,23.80
2018-05-18T09:05:46.169Z,23.80
2018-05-18T09:08:14.446Z,23.10
2018-05-18T09:10:42.773Z,23.50
2018-05-18T09:13:10.319Z,23.50
2018-05-18T09:15:37.836Z,24.90
2018-05-18T09:18:05.371Z,25.40
2018-05-18T09:20:33.621Z,25.90
2018-05-18T09:23:01.124Z,27.30
2018-05-18T09:25:29.598Z,26.70
2018-05-18T09:27:57.147Z,26.80
2018-05-18T09:30:24.669Z,27.50
2018-05-18T09:32:52.208Z,27.30
2018-05-18T09:35:19.730Z,27.30
2018-05-18T09:37:47.734Z,27.50
2018-05-18T09:40:16.029Z,25.80
2018-05-18T09:42:43.561Z,25.70
2018-05-18T09:45:11.869Z,24.40
2018-05-18T09:47:39.381Z,24.40
2018-05-18T09:50:06.981Z,24.90
2018-05-18T09:52:34.497Z,25.90
2018-05-18T09:55:02.246Z,24.90
2018-05-18T09:57:29.649Z,25.00
2018-05-18T09:59:57.157Z,25.00
2018-05-18T10:02:24.725Z,25.80
2018-05-18T10:04:52.306Z,26.80
2018-05-18T10:07:20.635Z,26.20
2018-05-18T10:09:48.366Z,26.30
2018-05-18T10:12:15.921Z,26.50
2018-05-18T10:14:44.203Z,24.20
2018-05-18T10:17:11.704Z,24.20
2018-05-18T10:19:39.250Z,24.00
2018-05-18T10:22:06.771Z,25.20
2018-05-18T10:24:34.281Z,25.40
2018-05-18T10:27:01.901Z,23.70
2018-05-18T10:29:29.448Z,24.40
2018-05-18T10:31:56.902Z,26.30
2018-05-18T10:34:24.443Z,26.20
2018-05-18T10:36:52.854Z,26.50
2018-05-18T10:39:20.352Z,26.60
2018-05-18T10:41:47.901Z,27.30
2018-05-18T10:44:15.500Z,28.20
2018-05-18T10:46:43.820Z,29.00
2018-05-18T10:49:11.349Z,28.90
2018-05-18T10:51:38.870Z,30.20
2018-05-18T10:54:06.497Z,29.20
2018-05-18T10:56:34.011Z,28.70
2018-05-18T10:59:02.297Z,28.00
2018-05-18T11:01:30.588Z,26.20
2018-05-18T11:03:58.096Z,26.10
2018-05-18T11:06:27.413Z,25.60
2018-05-18T11:08:54.926Z,26.10
2018-05-18T11:11:22.435Z,27.60
2018-05-18T11:13:52.238Z,28.40
2018-05-18T11:16:19.834Z,28.30
2018-05-18T11:18:47.365Z,28.80
2018-05-18T11:21:15.654Z,27.50
2018-05-18T11:23:43.976Z,26.00
2018-05-18T11:26:11.649Z,25.90
2018-05-18T11:28:39.162Z,26.30
2018-05-18T11:31:06.676Z,26.80
2018-05-18T11:33:34.710Z,27.70
2018-05-18T11:36:02.958Z,28.70
2018-05-18T11:38:30.473Z,28.20
2018-05-18T11:40:57.975Z,29.60
2018-05-18T11:43:25.479Z,29.90
2018-05-18T11:45:52.991Z,27.20
2018-05-18T11:48:20.498Z,25.40
2018-05-18T11:50:48.613Z,26.60
2018-05-18T11:53:16.889Z,29.00
2018-05-18T11:55:45.174Z,29.50
2018-05-18T11:58:12.725Z,29.40
2018-05-18T12:00:41.015Z,31.10
2018-05-18T12:03:08.529Z,31.00
2018-05-18T12:05:36.040Z,31.30
2018-05-18T12:08:03.591Z,31.40
2018-05-18T12:10:31.117Z,31.50
2018-05-18T12:12:59.404Z,31.60
2018-05-18T12:15:27.702Z,31.20
2018-05-18T12:17:55.217Z,31.20
2018-05-18T12:20:22.855Z,31.80
2018-05-18T12:25:24.307Z,30.70
2018-05-18T12:27:51.824Z,31.00
2018-05-18T12:30:20.580Z,30.90
2018-05-18T12:32:48.220Z,32.30
2018-05-18T12:35:15.739Z,31.60
2018-05-18T12:37:43.258Z,31.70
2018-05-18T12:40:10.797Z,32.50
2018-05-18T12:42:38.416Z,32.10
2018-05-18T12:45:06.824Z,28.20
2018-05-18T12:47:34.370Z,28.20
2018-05-18T12:50:01.906Z,28.00
2018-05-18T12:52:30.205Z,29.00
2018-05-18T12:54:57.721Z,29.00
2018-05-18T12:57:25.262Z,29.20
2018-05-18T12:59:52.780Z,27.90
2018-05-18T13:02:21.924Z,26.30
2018-05-18T13:04:49.497Z,26.10
2018-05-18T13:07:16.997Z,26.70
2018-05-18T13:09:44.521Z,26.60
2018-05-18T13:12:12.868Z,27.10
2018-05-18T13:14:40.858Z,27.10
2018-05-18T13:17:08.383Z,28.20
2018-05-18T13:19:35.900Z,29.00
2018-05-18T13:22:03.438Z,30.00
2018-05-18T13:24:31.795Z,31.50
2018-05-18T13:26:59.321Z,31.40
2018-05-18T13:29:26.855Z,31.50
2018-05-18T13:31:55.136Z,31.30
2018-05-18T13:34:22.705Z,31.20
2018-05-18T13:36:50.225Z,31.10
2018-05-18T13:39:17.881Z,31.30
2018-05-18T13:41:45.342Z,31.80
2018-05-18T13:44:12.907Z,30.60
2018-05-18T13:46:42.612Z,26.20
2018-05-18T13:49:10.220Z,26.20
2018-05-18T13:51:37.858Z,24.90
2018-05-18T13:54:05.310Z,26.00
2018-05-18T13:56:33.664Z,25.00
2018-05-18T13:59:01.986Z,24.70
2018-05-18T14:01:29.511Z,24.60
2018-05-18T14:03:57.825Z,23.80
2018-05-18T14:06:25.351Z,23.80
2018-05-18T14:08:53.764Z,23.30
2018-05-18T14:11:21.305Z,23.20
2018-05-18T14:13:48.828Z,23.40
2018-05-18T14:16:16.366Z,23.40
2018-05-18T14:18:43.994Z,22.90
2018-05-18T14:21:11.530Z,22.90
2018-05-18T14:23:39.836Z,22.30
2018-05-18T14:26:07.371Z,22.30
2018-05-18T14:28:34.926Z,21.90
2018-05-18T14:31:03.824Z,22.30
2018-05-18T14:33:31.412Z,22.30
2018-05-18T14:35:58.950Z,22.40
2018-05-18T14:38:26.517Z,22.40
2018-05-18T14:40:54.100Z,22.80
2018-05-18T14:43:21.582Z,23.10
2018-05-18T14:45:49.162Z,23.20
2018-05-18T14:48:17.434Z,23.00
2018-05-18T14:50:45.718Z,23.00
2018-05-18T14:53:14.075Z,23.00
2018-05-18T14:55:41.550Z,22.90
2018-05-18T14:58:09.797Z,22.80
2018-05-18T15:00:37.356Z,22.80
2018-05-18T15:03:04.856Z,22.80
2018-05-18T15:05:32.381Z,22.50
2018-05-18T15:07:59.897Z,22.50
2018-05-18T15:10:28.317Z,22.40
2018-05-18T15:12:55.865Z,22.40
2018-05-18T15:15:23.425Z,22.60
2018-05-18T15:17:51.020Z,22.00
2018-05-18T15:20:19.336Z,21.70
2018-05-18T15:22:46.901Z,21.70
2018-05-18T15:25:14.510Z,22.00
2018-05-18T15:27:42.829Z,22.20
2018-05-18T15:30:10.386Z,22.20
2018-05-18T15:32:37.969Z,22.30
2018-05-18T15:35:05.467Z,22.40
2018-05-18T15:37:33.742Z,22.20
2018-05-18T15:40:02.028Z,21.90
2018-05-18T15:42:29.593Z,21.90
2018-05-18T15:44:57.105Z,22.10
2018-05-18T15:47:24.629Z,21.60
2018-05-18T15:49:52.158Z,21.80
2018-05-18T15:52:20.468Z,21.50
2018-05-18T15:54:47.988Z,21.50
2018-05-18T15:57:16.261Z,21.20
2018-05-18T15:59:44.552Z,21.40
2018-05-18T16:02:12.065Z,21.40
2018-05-18T16:04:39.613Z,21.50
2018-05-18T16:07:07.141Z,21.80
2018-05-18T16:09:37.066Z,21.90
2018-05-18T16:12:04.617Z,22.10
2018-05-18T16:14:32.164Z,22.10
2018-05-18T16:16:59.696Z,21.60
2018-05-18T16:19:28.023Z,21.60
2018-05-18T16:21:55.565Z,21.60
2018-05-18T16:24:23.136Z,21.70
2018-05-18T16:26:50.675Z,21.60
2018-05-18T16:29:18.193Z,21.40
2018-05-18T16:31:45.684Z,21.50
2018-05-18T16:34:14.551Z,21.40
2018-05-18T16:36:42.079Z,21.40
2018-05-18T16:39:09.636Z,21.50
2018-05-18T16:41:37.283Z,21.50
2018-05-18T16:44:04.815Z,21.60
2018-05-18T16:46:32.321Z,21.70
2018-05-18T16:48:59.829Z,21.90
2018-05-18T16:51:27.392Z,21.90
2018-05-18T16:53:54.912Z,21.60
2018-05-18T16:56:22.449Z,21.30
2018-05-18T16:58:51.776Z,20.80
2018-05-18T17:01:20.211Z,20.90
2018-05-18T17:03:47.755Z,20.90
2018-05-18T17:06:15.297Z,21.10
2018-05-18T17:08:43.629Z,21.20
2018-05-18T17:11:11.158Z,21.20
2018-05-18T17:13:39.745Z,21.10
2018-05-18T17:16:07.279Z,20.90
2018-05-18T17:18:34.816Z,20.50
2018-05-18T17:21:03.089Z,20.60
2018-05-18T17:23:30.634Z,20.60
2018-05-18T17:25:58.217Z,20.60
2018-05-18T17:28:25.777Z,20.50
2018-05-18T17:30:54.113Z,20.50
2018-05-18T17:33:21.624Z,20.40
2018-05-18T17:35:49.892Z,20.40
2018-05-18T17:38:18.172Z,20.20
2018-05-18T17:40:46.575Z,20.10
2018-05-18T17:43:15.407Z,20.10
2018-05-18T17:45:42.915Z,20.10
2018-05-18T17:48:10.440Z,20.00
2018-05-18T17:50:38.747Z,19.80
2018-05-18T17:53:06.270Z,19.70
2018-05-18T17:55:34.588Z,19.60
2018-05-18T17:58:02.155Z,19.60
2018-05-18T18:00:29.660Z,19.60
2018-05-18T18:02:57.227Z,19.60
2018-05-18T18:05:24.768Z,19.60
2018-05-18T18:07:53.270Z,19.60
2018-05-18T18:10:20.763Z,19.60
2018-05-18T18:12:48.298Z,19.60
2018-05-18T18:15:15.812Z,19.60
2018-05-18T18:17:43.390Z,19.60
2018-05-18T18:20:10.966Z,19.50
2018-05-18T18:22:39.327Z,19.40
2018-05-18T18:25:06.932Z,19.30
2018-05-18T18:27:34.499Z,19.30
2018-05-18T18:30:02.026Z,19.30
2018-05-18T18:32:30.354Z,19.10
2018-05-18T18:34:57.895Z,19.10
2018-05-18T18:37:25.426Z,19.00
2018-05-18T18:39:53.743Z,18.90
2018-05-18T18:42:21.284Z,18.90
2018-05-18T18:44:48.826Z,18.80
2018-05-18T18:47:16.344Z,18.70
2018-05-18T18:49:43.905Z,18.60
2018-05-18T18:52:11.608Z,18.50
2018-05-18T18:54:39.127Z,18.40
2018-05-18T18:57:06.681Z,18.30
2018-05-18T18:59:34.210Z,18.20
2018-05-18T19:02:01.768Z,18.10
2018-05-18T19:04:29.334Z,18.10
2018-05-18T19:06:56.878Z,18.00
2018-05-18T19:09:24.465Z,18.00
2018-05-18T19:11:52.014Z,17.90
2018-05-18T19:14:19.555Z,17.80
2018-05-18T19:16:47.149Z,17.70
2018-05-18T19:19:14.706Z,17.70
2018-05-18T19:21:42.275Z,17.50
2018-05-18T19:24:09.961Z,17.30
2018-05-18T19:26:37.466Z,17.30
2018-05-18T19:29:05.000Z,17.20
2018-05-18T19:31:32.572Z,17.10
2018-05-18T19:34:00.096Z,17.00
2018-05-18T19:36:28.568Z,16.90
2018-05-18T19:38:56.006Z,16.90
2018-05-18T19:41:23.561Z,16.90
2018-05-18T19:43:51.144Z,16.80
2018-05-18T19:46:18.686Z,16.80
2018-05-18T19:48:46.279Z,16.70
2018-05-18T19:51:13.813Z,16.60
2018-05-18T19:53:41.337Z,16.50
2018-05-18T19:56:08.957Z,16.50
2018-05-18T19:58:36.520Z,16.50
2018-05-18T20:01:04.038Z,16.50
2018-05-18T20:03:32.626Z,16.40
2018-05-18T20:06:00.069Z,16.30
2018-05-18T20:08:27.618Z,16.20
2018-05-18T20:10:55.182Z,16.10
2018-05-18T20:13:22.749Z,16.10
2018-05-18T20:15:50.344Z,16.10
2018-05-18T20:18:17.870Z,16.10
2018-05-18T20:20:45.416Z,16.10
2018-05-18T20:23:12.967Z,16.10
2018-05-18T20:25:40.584Z,16.00
2018-05-18T20:28:08.167Z,16.10
2018-05-18T20:30:35.736Z,16.00
2018-05-18T20:33:03.891Z,15.90
2018-05-18T20:35:32.402Z,15.90
2018-05-18T20:38:00.918Z,15.80
2018-05-18T20:40:28.432Z,15.80
2018-05-18T20:42:55.999Z,15.70
2018-05-18T20:45:23.557Z,15.60
2018-05-18T20:47:51.126Z,15.50
2018-05-18T20:50:18.643Z,15.40
2018-05-18T20:52:46.179Z,15.30
2018-05-18T20:55:13.747Z,15.30
2018-05-18T20:57:41.319Z,15.20
2018-05-18T21:00:08.867Z,15.20
2018-05-18T21:02:36.561Z,15.10
2018-05-18T21:05:04.619Z,15.10
2018-05-18T21:07:32.185Z,15.00
2018-05-18T21:10:00.617Z,15.00
2018-05-18T21:12:28.150Z,15.00
2018-05-18T21:14:55.774Z,14.90
2018-05-18T21:17:23.320Z,14.90
2018-05-18T21:19:51.626Z,14.80
2018-05-18T21:22:19.156Z,14.70
2018-05-18T21:24:46.773Z,14.70
2018-05-18T21:27:14.279Z,14.70
2018-05-18T21:29:41.781Z,14.80
2018-05-18T21:32:09.306Z,14.80
2018-05-18T21:34:36.854Z,14.70
2018-05-18T21:37:04.384Z,14.70
2018-05-18T21:39:34.086Z,14.60
2018-05-18T21:42:02.380Z,14.50
2018-05-18T21:44:30.727Z,14.50
2018-05-18T21:46:58.269Z,14.40
2018-05-18T21:49:25.766Z,14.50
2018-05-18T21:51:54.076Z,14.50
2018-05-18T21:54:22.118Z,14.50
2018-05-18T21:56:50.418Z,14.60
2018-05-18T21:59:17.989Z,14.60
2018-05-18T22:01:45.477Z,14.60
2018-05-18T22:04:12.994Z,14.60
2018-05-18T22:06:40.553Z,14.60
2018-05-18T22:09:08.060Z,14.60
2018-05-18T22:11:35.620Z,14.60
2018-05-18T22:14:03.164Z,14.60
2018-05-18T22:16:31.830Z,14.60
2018-05-18T22:18:59.381Z,14.50
2018-05-18T22:21:26.909Z,14.50
2018-05-18T22:23:56.653Z,14.30
2018-05-18T22:26:24.172Z,14.30
2018-05-18T22:28:52.993Z,14.30
2018-05-18T22:31:20.526Z,14.20
2018-05-18T22:33:48.816Z,14.10
2018-05-18T22:36:16.348Z,14.10
2018-05-18T22:38:43.858Z,14.10
2018-05-18T22:41:11.378Z,14.00
2018-05-18T22:43:40.714Z,14.00
2018-05-18T22:46:08.226Z,14.00
2018-05-18T22:48:35.740Z,14.00
2018-05-18T22:51:03.299Z,13.90
2018-05-18T22:53:30.798Z,13.80
2018-05-18T22:55:59.086Z,13.80
2018-05-18T22:58:27.430Z,13.80
2018-05-18T23:00:54.937Z,13.70
2018-05-18T23:03:22.449Z,13.70
2018-05-18T23:05:49.977Z,13.70
2018-05-18T23:08:17.487Z,13.70
2018-05-18T23:10:45.004Z,13.70
2018-05-18T23:13:12.536Z,13.60
2018-05-18T23:15:40.037Z,13.60
2018-05-18T23:18:07.576Z,13.50
2018-05-18T23:20:35.067Z,13.40
2018-05-18T23:23:02.590Z,13.50
2018-05-18T23:25:30.102Z,13.40
2018-05-18T23:27:57.629Z,13.30
2018-05-18T23:30:25.187Z,13.30
2018-05-18T23:32:52.752Z,13.20
2018-05-18T23:35:20.344Z,13.20
2018-05-18T23:37:48.608Z,13.10
2018-05-18T23:40:16.136Z,13.10
2018-05-18T23:42:43.681Z,13.10
2018-05-18T23:45:12.100Z,13.00
2018-05-18T23:47:39.686Z,12.90
2018-05-18T23:50:07.252Z,12.90
2018-05-18T23:52:34.765Z,12.90
2018-05-18T23:55:02.291Z,12.90
2018-05-18T23:57:29.810Z,12.80
2018-05-18T23:59:58.127Z,12.70
